sensor_id;sensor_type;location;lat;lon;timestamp;P1;P2;P0
65574;PMS5003;52216;54.942;73.394;2023-04-16T00:01:32;3.00;2.00;0.00
65574;PMS5003;52216;54.942;73.394;2023-04-16T00:04:36;3.00;2.25;0.00
65574;PMS5003;52216;54.942;73.394;2023-04-16T00:07:49;4.00;4.00;0.00
65574;PMS5003;52216;54.942;73.394;2023-04-16T00:10:53;6.00;5.00;2.00
65574;PMS5003;52216;54.942;73.394;2023-04-16T00:13:55;6.00;4.00;2.00
65574;PMS5003;52216;54.942;73.394;2023-04-16T00:16:58;8.75;6.25;2.00
65574;PMS5003;52216;54.942;73.394;2023-04-16T00:20:02;7.00;5.00;3.00
65574;PMS5003;52216;54.942;73.394;2023-04-16T00:23:07;5.25;5.00;2.00
65574;PMS5003;52216;54.942;73.394;2023-04-16T00:26:10;7.50;6.00;2.25
65574;PMS5003;52216;54.942;73.394;2023-04-16T00:29:15;6.00;6.00;2.00
65574;PMS5003;52216;54.942;73.394;2023-04-16T00:32:18;8.00;6.00;2.00
65574;PMS5003;52216;54.942;73.394;2023-04-16T00:35:32;8.50;6.50;4.00
65574;PMS5003;52216;54.942;73.394;2023-04-16T00:38:35;9.00;6.75;4.00
65574;PMS5003;52216;54.942;73.394;2023-04-16T00:41:38;8.00;6.00;3.00
65574;PMS5003;52216;54.942;73.394;2023-04-16T00:44:42;9.00;6.80;3.00
65574;PMS5003;52216;54.942;73.394;2023-04-16T00:47:45;7.75;6.75;3.00
65574;PMS5003;52216;54.942;73.394;2023-04-16T00:50:49;6.75;5.00;2.00
65574;PMS5003;52216;54.942;73.394;2023-04-16T00:54:03;9.00;7.25;2.25
65574;PMS5003;52216;54.942;73.394;2023-04-16T00:57:06;8.00;6.75;2.00
65574;PMS5003;52216;54.942;73.394;2023-04-16T01:00:10;6.75;6.25;2.00
65574;PMS5003;52216;54.942;73.394;2023-04-16T01:03:18;7.00;6.00;2.50
65574;PMS5003;52216;54.942;73.394;2023-04-16T01:06:22;4.00;4.00;2.00
65574;PMS5003;52216;54.942;73.394;2023-04-16T01:09:25;4.00;4.00;2.00
65574;PMS5003;52216;54.942;73.394;2023-04-16T01:12:28;4.25;4.25;2.00
65574;PMS5003;52216;54.942;73.394;2023-04-16T01:15:32;4.25;4.00;1.75
65574;PMS5003;52216;54.942;73.394;2023-04-16T01:18:36;4.00;4.00;2.00
65574;PMS5003;52216;54.942;73.394;2023-04-16T01:21:39;4.00;4.00;2.00
65574;PMS5003;52216;54.942;73.394;2023-04-16T01:24:41;5.75;5.75;2.00
65574;PMS5003;52216;54.942;73.394;2023-04-16T01:27:49;7.00;5.00;2.00
65574;PMS5003;52216;54.942;73.394;2023-04-16T01:30:54;5.00;5.00;2.00
65574;PMS5003;52216;54.942;73.394;2023-04-16T01:34:14;5.50;5.00;2.00
65574;PMS5003;52216;54.942;73.394;2023-04-16T01:37:17;5.00;5.00;2.00
65574;PMS5003;52216;54.942;73.394;2023-04-16T01:40:22;6.00;6.00;2.00
65574;PMS5003;52216;54.942;73.394;2023-04-16T01:43:27;6.25;6.00;2.00
65574;PMS5003;52216;54.942;73.394;2023-04-16T01:46:40;5.00;5.00;3.00
65574;PMS5003;52216;54.942;73.394;2023-04-16T01:49:43;5.25;4.50;2.00
65574;PMS5003;52216;54.942;73.394;2023-04-16T01:52:47;6.75;6.75;2.00
65574;PMS5003;52216;54.942;73.394;2023-04-16T01:55:56;10.00;7.50;2.50
65574;PMS5003;52216;54.942;73.394;2023-04-16T01:58:59;7.00;5.00;2.00
65574;PMS5003;52216;54.942;73.394;2023-04-16T02:02:11;7.00;7.00;3.00
65574;PMS5003;52216;54.942;73.394;2023-04-16T02:05:16;7.00;6.00;2.25
65574;PMS5003;52216;54.942;73.394;2023-04-16T02:08:20;5.00;5.00;2.00
65574;PMS5003;52216;54.942;73.394;2023-04-16T02:11:23;5.00;4.75;2.00
65574;PMS5003;52216;54.942;73.394;2023-04-16T02:14:27;5.00;4.50;2.50
65574;PMS5003;52216;54.942;73.394;2023-04-16T02:17:30;5.00;5.00;2.00
65574;PMS5003;52216;54.942;73.394;2023-04-16T02:21:09;2.50;2.00;0.00
65574;PMS5003;52216;54.942;73.394;2023-04-16T02:24:14;2.00;2.00;0.00
65574;PMS5003;52216;54.942;73.394;2023-04-16T02:27:19;2.00;1.00;0.00
65574;PMS5003;52216;54.942;73.394;2023-04-16T02:30:24;2.00;1.00;0.00
65574;PMS5003;52216;54.942;73.394;2023-04-16T02:33:29;1.00;1.00;0.00
65574;PMS5003;52216;54.942;73.394;2023-04-16T02:36:38;0.75;0.75;0.00
65574;PMS5003;52216;54.942;73.394;2023-04-16T02:39:42;0.00;0.00;0.00
65574;PMS5003;52216;54.942;73.394;2023-04-16T02:42:45;0.50;0.00;0.00
65574;PMS5003;52216;54.942;73.394;2023-04-16T02:45:49;0.00;0.00;0.00
65574;PMS5003;52216;54.942;73.394;2023-04-16T02:49:18;0.00;0.00;0.00
65574;PMS5003;52216;54.942;73.394;2023-04-16T02:52:20;0.00;0.00;0.00
65574;PMS5003;52216;54.942;73.394;2023-04-16T02:55:24;0.00;0.00;0.00
65574;PMS5003;52216;54.942;73.394;2023-04-16T02:58:27;0.00;0.00;0.00
65574;PMS5003;52216;54.942;73.394;2023-04-16T03:01:31;0.00;0.00;0.00
65574;PMS5003;52216;54.942;73.394;2023-04-16T03:04:35;0.75;0.00;0.00
65574;PMS5003;52216;54.942;73.394;2023-04-16T03:07:38;0.00;0.00;0.00
65574;PMS5003;52216;54.942;73.394;2023-04-16T03:10:42;0.25;0.00;0.00
65574;PMS5003;52216;54.942;73.394;2023-04-16T03:13:54;1.00;1.00;0.00
65574;PMS5003;52216;54.942;73.394;2023-04-16T03:16:58;0.00;0.00;0.00
65574;PMS5003;52216;54.942;73.394;2023-04-16T03:20:06;0.00;0.00;0.00
65574;PMS5003;52216;54.942;73.394;2023-04-16T03:23:11;0.00;0.00;0.00
65574;PMS5003;52216;54.942;73.394;2023-04-16T03:26:14;0.00;0.00;0.00
65574;PMS5003;52216;54.942;73.394;2023-04-16T03:29:18;0.00;0.00;0.00
65574;PMS5003;52216;54.942;73.394;2023-04-16T03:32:23;0.00;0.00;0.00
65574;PMS5003;52216;54.942;73.394;2023-04-16T03:35:25;0.00;0.00;0.00
65574;PMS5003;52216;54.942;73.394;2023-04-16T03:38:29;0.00;0.00;0.00
65574;PMS5003;52216;54.942;73.394;2023-04-16T03:41:43;0.00;0.00;0.00
65574;PMS5003;52216;54.942;73.394;2023-04-16T03:44:47;0.00;0.00;0.00
65574;PMS5003;52216;54.942;73.394;2023-04-16T03:47:51;0.00;0.00;0.00
65574;PMS5003;52216;54.942;73.394;2023-04-16T03:50:57;0.00;0.00;0.00
65574;PMS5003;52216;54.942;73.394;2023-04-16T03:54:15;0.00;0.00;0.00
65574;PMS5003;52216;54.942;73.394;2023-04-16T03:57:22;0.00;0.00;0.00
65574;PMS5003;52216;54.942;73.394;2023-04-16T04:00:30;0.00;0.00;0.00
65574;PMS5003;52216;54.942;73.394;2023-04-16T04:03:41;0.00;0.00;0.00
65574;PMS5003;52216;54.942;73.394;2023-04-16T04:06:45;0.00;0.00;0.00
65574;PMS5003;52216;54.942;73.394;2023-04-16T04:09:56;0.00;0.00;0.00
65574;PMS5003;52216;54.942;73.394;2023-04-16T04:13:01;1.00;0.00;0.00
65574;PMS5003;52216;54.942;73.394;2023-04-16T04:16:08;1.00;0.00;0.00
65574;PMS5003;52216;54.942;73.394;2023-04-16T04:19:11;0.00;0.00;0.00
65574;PMS5003;52216;54.942;73.394;2023-04-16T04:22:15;0.00;0.00;0.00
65574;PMS5003;52216;54.942;73.394;2023-04-16T04:25:24;0.00;0.00;0.00
65574;PMS5003;52216;54.942;73.394;2023-04-16T04:28:27;0.00;0.00;0.00
65574;PMS5003;52216;54.942;73.394;2023-04-16T04:31:29;0.00;0.00;0.00
65574;PMS5003;52216;54.942;73.394;2023-04-16T04:34:51;0.00;0.00;0.00
65574;PMS5003;52216;54.942;73.394;2023-04-16T04:37:58;0.00;0.00;0.00
65574;PMS5003;52216;54.942;73.394;2023-04-16T04:41:04;0.00;0.00;0.00
65574;PMS5003;52216;54.942;73.394;2023-04-16T04:44:11;0.00;0.00;0.00
65574;PMS5003;52216;54.942;73.394;2023-04-16T04:47:24;0.00;0.00;0.00
65574;PMS5003;52216;54.942;73.394;2023-04-16T04:50:29;0.00;0.00;0.00
65574;PMS5003;52216;54.942;73.394;2023-04-16T04:53:33;0.00;0.00;0.00
65574;PMS5003;52216;54.942;73.394;2023-04-16T04:56:41;0.00;0.00;0.00
65574;PMS5003;52216;54.942;73.394;2023-04-16T04:59:47;0.00;0.00;0.00
65574;PMS5003;52216;54.942;73.394;2023-04-16T05:02:51;0.00;0.00;0.00
65574;PMS5003;52216;54.942;73.394;2023-04-16T05:05:55;0.00;0.00;0.00
65574;PMS5003;52216;54.942;73.394;2023-04-16T05:09:00;0.00;0.00;0.00
65574;PMS5003;52216;54.942;73.394;2023-04-16T05:12:13;0.00;0.00;0.00
65574;PMS5003;52216;54.942;73.394;2023-04-16T05:15:16;0.00;0.00;0.00
65574;PMS5003;52216;54.942;73.394;2023-04-16T05:18:19;0.00;0.00;0.00
65574;PMS5003;52216;54.942;73.394;2023-04-16T05:21:22;0.00;0.00;0.00
65574;PMS5003;52216;54.942;73.394;2023-04-16T05:24:31;0.00;0.00;0.00
65574;PMS5003;52216;54.942;73.394;2023-04-16T05:27:35;0.00;0.00;0.00
65574;PMS5003;52216;54.942;73.394;2023-04-16T05:30:49;0.00;0.00;0.00
65574;PMS5003;52216;54.942;73.394;2023-04-16T05:33:52;0.00;0.00;0.00
65574;PMS5003;52216;54.942;73.394;2023-04-16T05:36:56;0.00;0.00;0.00
65574;PMS5003;52216;54.942;73.394;2023-04-16T05:39:59;0.00;0.00;0.00
65574;PMS5003;52216;54.942;73.394;2023-04-16T05:43:03;0.00;0.00;0.00
65574;PMS5003;52216;54.942;73.394;2023-04-16T05:46:06;0.00;0.00;0.00
65574;PMS5003;52216;54.942;73.394;2023-04-16T05:49:09;0.00;0.00;0.00
65574;PMS5003;52216;54.942;73.394;2023-04-16T05:52:22;0.00;0.00;0.00
65574;PMS5003;52216;54.942;73.394;2023-04-16T05:55:25;0.00;0.00;0.00
65574;PMS5003;52216;54.942;73.394;2023-04-16T05:58:40;0.00;0.00;0.00
65574;PMS5003;52216;54.942;73.394;2023-04-16T06:01:46;0.00;0.00;0.00
65574;PMS5003;52216;54.942;73.394;2023-04-16T06:04:49;0.00;0.00;0.00
65574;PMS5003;52216;54.942;73.394;2023-04-16T06:07:52;0.00;0.00;0.00
65574;PMS5003;52216;54.942;73.394;2023-04-16T06:11:05;0.00;0.00;0.00
65574;PMS5003;52216;54.942;73.394;2023-04-16T06:14:13;0.00;0.00;0.00
65574;PMS5003;52216;54.942;73.394;2023-04-16T06:17:17;0.00;0.00;0.00
65574;PMS5003;52216;54.942;73.394;2023-04-16T06:20:21;0.00;0.00;0.00
65574;PMS5003;52216;54.942;73.394;2023-04-16T06:23:24;0.00;0.00;0.00
65574;PMS5003;52216;54.942;73.394;2023-04-16T06:26:33;0.00;0.00;0.00
65574;PMS5003;52216;54.942;73.394;2023-04-16T06:29:37;0.00;0.00;0.00
65574;PMS5003;52216;54.942;73.394;2023-04-16T06:32:45;0.00;0.00;0.00
65574;PMS5003;52216;54.942;73.394;2023-04-16T06:35:48;0.00;0.00;0.00
65574;PMS5003;52216;54.942;73.394;2023-04-16T06:38:51;0.00;0.00;0.00
65574;PMS5003;52216;54.942;73.394;2023-04-16T06:41:54;0.00;0.00;0.00
65574;PMS5003;52216;54.942;73.394;2023-04-16T06:44:56;0.00;0.00;0.00
65574;PMS5003;52216;54.942;73.394;2023-04-16T06:48:00;0.00;0.00;0.00
65574;PMS5003;52216;54.942;73.394;2023-04-16T06:51:36;0.00;0.00;0.00
65574;PMS5003;52216;54.942;73.394;2023-04-16T06:54:44;0.00;0.00;0.00
65574;PMS5003;52216;54.942;73.394;2023-04-16T06:57:49;0.50;0.00;0.00
65574;PMS5003;52216;54.942;73.394;2023-04-16T07:00:52;0.00;0.00;0.00
65574;PMS5003;52216;54.942;73.394;2023-04-16T07:03:56;0.00;0.00;0.00
65574;PMS5003;52216;54.942;73.394;2023-04-16T07:07:05;0.00;0.00;0.00
65574;PMS5003;52216;54.942;73.394;2023-04-16T07:10:08;0.00;0.00;0.00
65574;PMS5003;52216;54.942;73.394;2023-04-16T07:13:11;0.00;0.00;0.00
65574;PMS5003;52216;54.942;73.394;2023-04-16T07:16:23;0.00;0.00;0.00
65574;PMS5003;52216;54.942;73.394;2023-04-16T07:19:26;0.00;0.00;0.00
65574;PMS5003;52216;54.942;73.394;2023-04-16T07:22:32;0.00;0.00;0.00
65574;PMS5003;52216;54.942;73.394;2023-04-16T07:25:35;0.00;0.00;0.00
65574;PMS5003;52216;54.942;73.394;2023-04-16T07:28:39;0.00;0.00;0.00
65574;PMS5003;52216;54.942;73.394;2023-04-16T07:31:47;0.00;0.00;0.00
65574;PMS5003;52216;54.942;73.394;2023-04-16T07:34:50;0.00;0.00;0.00
65574;PMS5003;52216;54.942;73.394;2023-04-16T07:37:52;0.00;0.00;0.00
65574;PMS5003;52216;54.942;73.394;2023-04-16T07:40:56;0.00;0.00;0.00
65574;PMS5003;52216;54.942;73.394;2023-04-16T07:43:59;0.00;0.00;0.00
65574;PMS5003;52216;54.942;73.394;2023-04-16T07:47:02;0.00;0.00;0.00
65574;PMS5003;52216;54.942;73.394;2023-04-16T07:50:15;0.00;0.00;0.00
65574;PMS5003;52216;54.942;73.394;2023-04-16T07:53:18;0.00;0.00;0.00
65574;PMS5003;52216;54.942;73.394;2023-04-16T07:56:26;0.00;0.00;0.00
65574;PMS5003;52216;54.942;73.394;2023-04-16T07:59:29;0.00;0.00;0.00
65574;PMS5003;52216;54.942;73.394;2023-04-16T08:02:32;0.00;0.00;0.00
65574;PMS5003;52216;54.942;73.394;2023-04-16T08:05:36;0.00;0.00;0.00
65574;PMS5003;52216;54.942;73.394;2023-04-16T08:08:40;0.00;0.00;0.00
65574;PMS5003;52216;54.942;73.394;2023-04-16T08:11:43;0.00;0.00;0.00
65574;PMS5003;52216;54.942;73.394;2023-04-16T08:14:46;0.00;0.00;0.00
65574;PMS5003;52216;54.942;73.394;2023-04-16T08:17:50;0.00;0.00;0.00
65574;PMS5003;52216;54.942;73.394;2023-04-16T08:20:58;0.00;0.00;0.00
65574;PMS5003;52216;54.942;73.394;2023-04-16T08:24:01;0.00;0.00;0.00
65574;PMS5003;52216;54.942;73.394;2023-04-16T08:27:04;0.00;0.00;0.00
65574;PMS5003;52216;54.942;73.394;2023-04-16T08:30:07;0.00;0.00;0.00
65574;PMS5003;52216;54.942;73.394;2023-04-16T08:33:11;0.00;0.00;0.00
65574;PMS5003;52216;54.942;73.394;2023-04-16T08:36:15;0.00;0.00;0.00
65574;PMS5003;52216;54.942;73.394;2023-04-16T08:39:17;0.00;0.00;0.00
65574;PMS5003;52216;54.942;73.394;2023-04-16T08:42:22;0.00;0.00;0.00
65574;PMS5003;52216;54.942;73.394;2023-04-16T08:45:26;0.00;0.00;0.00
65574;PMS5003;52216;54.942;73.394;2023-04-16T08:48:31;0.00;0.00;0.00
65574;PMS5003;52216;54.942;73.394;2023-04-16T08:51:35;0.00;0.00;0.00
65574;PMS5003;52216;54.942;73.394;2023-04-16T08:54:51;0.00;0.00;0.00
65574;PMS5003;52216;54.942;73.394;2023-04-16T08:57:59;0.00;0.00;0.00
65574;PMS5003;52216;54.942;73.394;2023-04-16T09:01:03;0.00;0.00;0.00
65574;PMS5003;52216;54.942;73.394;2023-04-16T09:04:17;0.00;0.00;0.00
65574;PMS5003;52216;54.942;73.394;2023-04-16T09:07:21;0.00;0.00;0.00
65574;PMS5003;52216;54.942;73.394;2023-04-16T09:10:25;0.00;0.00;0.00
65574;PMS5003;52216;54.942;73.394;2023-04-16T09:13:30;0.00;0.00;0.00
65574;PMS5003;52216;54.942;73.394;2023-04-16T09:16:33;0.00;0.00;0.00
65574;PMS5003;52216;54.942;73.394;2023-04-16T09:19:37;0.00;0.00;0.00
65574;PMS5003;52216;54.942;73.394;2023-04-16T09:22:40;0.00;0.00;0.00
65574;PMS5003;52216;54.942;73.394;2023-04-16T09:25:44;0.00;0.00;0.00
65574;PMS5003;52216;54.942;73.394;2023-04-16T09:28:47;0.00;0.00;0.00
65574;PMS5003;52216;54.942;73.394;2023-04-16T09:32:04;0.00;0.00;0.00
65574;PMS5003;52216;54.942;73.394;2023-04-16T09:35:18;0.00;0.00;0.00
65574;PMS5003;52216;54.942;73.394;2023-04-16T09:38:26;0.00;0.00;0.00
65574;PMS5003;52216;54.942;73.394;2023-04-16T09:41:47;0.00;0.00;0.00
65574;PMS5003;52216;54.942;73.394;2023-04-16T09:44:50;0.00;0.00;0.00
65574;PMS5003;52216;54.942;73.394;2023-04-16T09:48:04;0.00;0.00;0.00
65574;PMS5003;52216;54.942;73.394;2023-04-16T09:51:06;0.00;0.00;0.00
65574;PMS5003;52216;54.942;73.394;2023-04-16T09:54:09;0.00;0.00;0.00
65574;PMS5003;52216;54.942;73.394;2023-04-16T09:57:13;0.00;0.00;0.00
65574;PMS5003;52216;54.942;73.394;2023-04-16T10:00:17;0.00;0.00;0.00
65574;PMS5003;52216;54.942;73.394;2023-04-16T10:03:27;0.00;0.00;0.00
65574;PMS5003;52216;54.942;73.394;2023-04-16T10:06:31;0.00;0.00;0.00
65574;PMS5003;52216;54.942;73.394;2023-04-16T10:09:37;0.00;0.00;0.00
65574;PMS5003;52216;54.942;73.394;2023-04-16T10:13:17;0.67;0.00;0.00
65574;PMS5003;52216;54.942;73.394;2023-04-16T10:16:26;0.00;0.00;0.00
65574;PMS5003;52216;54.942;73.394;2023-04-16T10:19:30;0.00;0.00;0.00
65574;PMS5003;52216;54.942;73.394;2023-04-16T10:22:34;0.00;0.00;0.00
65574;PMS5003;52216;54.942;73.394;2023-04-16T10:25:38;0.00;0.00;0.00
65574;PMS5003;52216;54.942;73.394;2023-04-16T10:28:42;0.00;0.00;0.00
65574;PMS5003;52216;54.942;73.394;2023-04-16T10:31:46;0.00;0.00;0.00
65574;PMS5003;52216;54.942;73.394;2023-04-16T10:34:50;0.00;0.00;0.00
65574;PMS5003;52216;54.942;73.394;2023-04-16T10:37:56;0.00;0.00;0.00
65574;PMS5003;52216;54.942;73.394;2023-04-16T10:41:03;0.00;0.00;0.00
65574;PMS5003;52216;54.942;73.394;2023-04-16T10:44:12;0.00;0.00;0.00
65574;PMS5003;52216;54.942;73.394;2023-04-16T10:47:15;0.00;0.00;0.00
65574;PMS5003;52216;54.942;73.394;2023-04-16T10:50:24;0.00;0.00;0.00
65574;PMS5003;52216;54.942;73.394;2023-04-16T10:53:27;0.00;0.00;0.00
65574;PMS5003;52216;54.942;73.394;2023-04-16T10:56:31;0.00;0.00;0.00
65574;PMS5003;52216;54.942;73.394;2023-04-16T10:59:41;0.00;0.00;0.00
65574;PMS5003;52216;54.942;73.394;2023-04-16T11:02:44;0.00;0.00;0.00
65574;PMS5003;52216;54.942;73.394;2023-04-16T11:05:47;0.00;0.00;0.00
65574;PMS5003;52216;54.942;73.394;2023-04-16T11:08:51;0.00;0.00;0.00
65574;PMS5003;52216;54.942;73.394;2023-04-16T11:12:04;0.00;0.00;0.00
65574;PMS5003;52216;54.942;73.394;2023-04-16T11:15:15;0.00;0.00;0.00
65574;PMS5003;52216;54.942;73.394;2023-04-16T11:18:19;0.00;0.00;0.00
65574;PMS5003;52216;54.942;73.394;2023-04-16T11:21:23;0.00;0.00;0.00
65574;PMS5003;52216;54.942;73.394;2023-04-16T11:24:36;0.00;0.00;0.00
65574;PMS5003;52216;54.942;73.394;2023-04-16T11:27:42;0.00;0.00;0.00
65574;PMS5003;52216;54.942;73.394;2023-04-16T11:30:45;0.00;0.00;0.00
65574;PMS5003;52216;54.942;73.394;2023-04-16T11:33:49;0.00;0.00;0.00
65574;PMS5003;52216;54.942;73.394;2023-04-16T11:37:02;0.00;0.00;0.00
65574;PMS5003;52216;54.942;73.394;2023-04-16T11:40:05;0.00;0.00;0.00
65574;PMS5003;52216;54.942;73.394;2023-04-16T11:43:13;0.00;0.00;0.00
65574;PMS5003;52216;54.942;73.394;2023-04-16T11:46:17;0.00;0.00;0.00
65574;PMS5003;52216;54.942;73.394;2023-04-16T11:49:30;0.00;0.00;0.00
65574;PMS5003;52216;54.942;73.394;2023-04-16T11:52:34;0.00;0.00;0.00
65574;PMS5003;52216;54.942;73.394;2023-04-16T11:55:42;0.00;0.00;0.00
65574;PMS5003;52216;54.942;73.394;2023-04-16T11:58:54;0.00;0.00;0.00
65574;PMS5003;52216;54.942;73.394;2023-04-16T12:02:07;0.00;0.00;0.00
65574;PMS5003;52216;54.942;73.394;2023-04-16T12:08:32;0.00;0.00;0.00
65574;PMS5003;52216;54.942;73.394;2023-04-16T12:11:36;0.75;0.00;0.00
65574;PMS5003;52216;54.942;73.394;2023-04-16T12:14:48;0.00;0.00;0.00
65574;PMS5003;52216;54.942;73.394;2023-04-16T12:18:04;1.00;1.00;0.00
65574;PMS5003;52216;54.942;73.394;2023-04-16T12:21:08;1.00;1.00;0.00
65574;PMS5003;52216;54.942;73.394;2023-04-16T12:24:12;1.00;1.00;0.00
65574;PMS5003;52216;54.942;73.394;2023-04-16T12:27:16;0.00;0.00;0.00
65574;PMS5003;52216;54.942;73.394;2023-04-16T12:30:20;0.00;0.00;0.00
65574;PMS5003;52216;54.942;73.394;2023-04-16T12:33:29;0.75;0.50;0.00
65574;PMS5003;52216;54.942;73.394;2023-04-16T12:36:32;1.00;0.00;0.00
65574;PMS5003;52216;54.942;73.394;2023-04-16T12:39:39;0.00;0.00;0.00
65574;PMS5003;52216;54.942;73.394;2023-04-16T12:42:43;0.00;0.00;0.00
65574;PMS5003;52216;54.942;73.394;2023-04-16T12:45:46;0.00;0.00;0.00
65574;PMS5003;52216;54.942;73.394;2023-04-16T12:48:49;0.00;0.00;0.00
65574;PMS5003;52216;54.942;73.394;2023-04-16T12:51:52;0.00;0.00;0.00
65574;PMS5003;52216;54.942;73.394;2023-04-16T12:54:54;0.00;0.00;0.00
65574;PMS5003;52216;54.942;73.394;2023-04-16T12:57:57;2.00;0.00;0.00
65574;PMS5003;52216;54.942;73.394;2023-04-16T13:01:00;2.00;0.00;0.00
65574;PMS5003;52216;54.942;73.394;2023-04-16T13:04:13;1.00;0.00;0.00
65574;PMS5003;52216;54.942;73.394;2023-04-16T13:07:22;1.00;0.00;0.00
65574;PMS5003;52216;54.942;73.394;2023-04-16T13:10:31;0.00;0.00;0.00
65574;PMS5003;52216;54.942;73.394;2023-04-16T13:13:39;0.00;0.00;0.00
65574;PMS5003;52216;54.942;73.394;2023-04-16T13:16:42;0.00;0.00;0.00
65574;PMS5003;52216;54.942;73.394;2023-04-16T13:19:51;0.00;0.00;0.00
65574;PMS5003;52216;54.942;73.394;2023-04-16T13:22:55;0.00;0.00;0.00
65574;PMS5003;52216;54.942;73.394;2023-04-16T13:25:58;0.00;0.00;0.00
65574;PMS5003;52216;54.942;73.394;2023-04-16T13:29:01;0.00;0.00;0.00
65574;PMS5003;52216;54.942;73.394;2023-04-16T13:32:05;0.00;0.00;0.00
65574;PMS5003;52216;54.942;73.394;2023-04-16T13:35:08;0.00;0.00;0.00
65574;PMS5003;52216;54.942;73.394;2023-04-16T13:38:12;0.00;0.00;0.00
65574;PMS5003;52216;54.942;73.394;2023-04-16T13:41:15;0.00;0.00;0.00
65574;PMS5003;52216;54.942;73.394;2023-04-16T13:44:54;0.00;0.00;0.00
65574;PMS5003;52216;54.942;73.394;2023-04-16T13:48:07;1.00;1.00;0.00
65574;PMS5003;52216;54.942;73.394;2023-04-16T13:51:16;0.00;0.00;0.00
65574;PMS5003;52216;54.942;73.394;2023-04-16T13:54:19;0.25;0.25;0.00
65574;PMS5003;52216;54.942;73.394;2023-04-16T13:57:23;0.00;0.00;0.00
65574;PMS5003;52216;54.942;73.394;2023-04-16T14:00:26;1.25;1.25;0.00
65574;PMS5003;52216;54.942;73.394;2023-04-16T14:03:29;0.00;0.00;0.00
65574;PMS5003;52216;54.942;73.394;2023-04-16T14:06:39;0.00;0.00;0.00
65574;PMS5003;52216;54.942;73.394;2023-04-16T14:09:41;1.00;1.00;0.00
65574;PMS5003;52216;54.942;73.394;2023-04-16T14:12:47;1.00;1.00;0.00
65574;PMS5003;52216;54.942;73.394;2023-04-16T14:15:55;1.00;1.00;0.00
65574;PMS5003;52216;54.942;73.394;2023-04-16T14:18:59;1.00;1.00;0.00
65574;PMS5003;52216;54.942;73.394;2023-04-16T14:22:00;1.00;1.00;0.00
65574;PMS5003;52216;54.942;73.394;2023-04-16T14:25:04;1.50;1.00;0.00
65574;PMS5003;52216;54.942;73.394;2023-04-16T14:28:07;2.00;2.00;0.00
65574;PMS5003;52216;54.942;73.394;2023-04-16T14:31:11;3.00;2.00;0.00
65574;PMS5003;52216;54.942;73.394;2023-04-16T14:34:14;3.00;1.00;0.00
65574;PMS5003;52216;54.942;73.394;2023-04-16T14:37:18;3.00;2.00;0.00
65574;PMS5003;52216;54.942;73.394;2023-04-16T14:40:21;3.00;2.00;0.00
65574;PMS5003;52216;54.942;73.394;2023-04-16T14:43:24;2.00;1.00;0.00
65574;PMS5003;52216;54.942;73.394;2023-04-16T14:46:27;3.00;2.75;0.00
65574;PMS5003;52216;54.942;73.394;2023-04-16T14:49:32;6.00;5.75;2.00
65574;PMS5003;52216;54.942;73.394;2023-04-16T14:52:33;6.00;5.00;3.00
65574;PMS5003;52216;54.942;73.394;2023-04-16T14:55:37;6.00;6.00;3.00
65574;PMS5003;52216;54.942;73.394;2023-04-16T14:58:40;8.00;6.25;3.00
65574;PMS5003;52216;54.942;73.394;2023-04-16T15:01:50;6.00;6.00;3.00
65574;PMS5003;52216;54.942;73.394;2023-04-16T15:05:04;6.00;5.00;3.00
65574;PMS5003;52216;54.942;73.394;2023-04-16T15:08:09;6.25;6.00;3.00
65574;PMS5003;52216;54.942;73.394;2023-04-16T15:11:13;9.75;8.75;4.00
65574;PMS5003;52216;54.942;73.394;2023-04-16T15:14:17;10.00;7.00;3.00
65574;PMS5003;52216;54.942;73.394;2023-04-16T15:17:20;9.00;6.25;3.75
65574;PMS5003;52216;54.942;73.394;2023-04-16T15:20:26;10.33;9.67;5.67
65574;PMS5003;52216;54.942;73.394;2023-04-16T15:23:29;13.00;11.67;6.00
65574;PMS5003;52216;54.942;73.394;2023-04-16T15:26:32;13.00;13.00;6.00
65574;PMS5003;52216;54.942;73.394;2023-04-16T15:29:42;13.00;12.00;4.00
65574;PMS5003;52216;54.942;73.394;2023-04-16T15:32:47;13.75;12.50;6.00
65574;PMS5003;52216;54.942;73.394;2023-04-16T15:35:49;14.00;13.00;5.00
65574;PMS5003;52216;54.942;73.394;2023-04-16T15:38:53;13.67;11.00;5.00
65574;PMS5003;52216;54.942;73.394;2023-04-16T15:42:05;14.75;11.00;6.00
65574;PMS5003;52216;54.942;73.394;2023-04-16T15:45:09;16.00;13.00;6.00
65574;PMS5003;52216;54.942;73.394;2023-04-16T15:48:11;16.00;14.00;7.00
65574;PMS5003;52216;54.942;73.394;2023-04-16T15:51:13;15.75;13.00;5.50
65574;PMS5003;52216;54.942;73.394;2023-04-16T15:54:17;16.00;15.00;6.00
65574;PMS5003;52216;54.942;73.394;2023-04-16T15:57:20;16.00;14.00;6.00
65574;PMS5003;52216;54.942;73.394;2023-04-16T16:00:23;16.00;15.25;7.00
65574;PMS5003;52216;54.942;73.394;2023-04-16T16:03:35;20.75;17.00;8.00
65574;PMS5003;52216;54.942;73.394;2023-04-16T16:06:43;19.00;16.00;8.00
65574;PMS5003;52216;54.942;73.394;2023-04-16T16:09:45;20.00;15.67;8.00
65574;PMS5003;52216;54.942;73.394;2023-04-16T16:12:50;18.00;16.00;9.00
65574;PMS5003;52216;54.942;73.394;2023-04-16T16:15:57;17.00;15.75;8.50
65574;PMS5003;52216;54.942;73.394;2023-04-16T16:19:00;18.00;16.75;9.00
65574;PMS5003;52216;54.942;73.394;2023-04-16T16:22:03;19.00;18.00;9.00
65574;PMS5003;52216;54.942;73.394;2023-04-16T16:25:05;20.25;18.00;9.00
65574;PMS5003;52216;54.942;73.394;2023-04-16T16:28:08;17.25;16.00;9.00
65574;PMS5003;52216;54.942;73.394;2023-04-16T16:31:20;18.75;16.00;8.50
65574;PMS5003;52216;54.942;73.394;2023-04-16T16:34:23;21.20;18.60;10.00
65574;PMS5003;52216;54.942;73.394;2023-04-16T16:37:27;22.00;20.00;12.00
65574;PMS5003;52216;54.942;73.394;2023-04-16T16:40:29;23.50;21.00;12.00
65574;PMS5003;52216;54.942;73.394;2023-04-16T16:43:33;25.75;21.50;13.75
65574;PMS5003;52216;54.942;73.394;2023-04-16T16:46:40;26.00;22.00;14.00
65574;PMS5003;52216;54.942;73.394;2023-04-16T16:49:48;24.00;21.00;13.00
65574;PMS5003;52216;54.942;73.394;2023-04-16T16:52:51;24.33;22.00;12.00
65574;PMS5003;52216;54.942;73.394;2023-04-16T16:55:55;25.60;22.80;13.80
65574;PMS5003;52216;54.942;73.394;2023-04-16T16:58:57;27.00;22.00;15.00
65574;PMS5003;52216;54.942;73.394;2023-04-16T17:02:06;24.60;22.00;14.00
65574;PMS5003;52216;54.942;73.394;2023-04-16T17:05:08;26.00;21.00;15.00
65574;PMS5003;52216;54.942;73.394;2023-04-16T17:08:16;30.50;24.50;16.00
65574;PMS5003;52216;54.942;73.394;2023-04-16T17:11:19;30.60;24.40;16.00
65574;PMS5003;52216;54.942;73.394;2023-04-16T17:14:21;28.00;24.00;16.00
65574;PMS5003;52216;54.942;73.394;2023-04-16T17:17:26;28.20;24.00;16.00
65574;PMS5003;52216;54.942;73.394;2023-04-16T17:20:30;28.80;24.00;16.00
65574;PMS5003;52216;54.942;73.394;2023-04-16T17:23:34;30.80;25.20;16.40
65574;PMS5003;52216;54.942;73.394;2023-04-16T17:26:37;31.00;26.00;17.00
65574;PMS5003;52216;54.942;73.394;2023-04-16T17:29:51;29.00;24.00;16.00
65574;PMS5003;52216;54.942;73.394;2023-04-16T17:33:01;26.00;22.00;15.00
65574;PMS5003;52216;54.942;73.394;2023-04-16T17:36:05;24.75;20.75;14.00
65574;PMS5003;52216;54.942;73.394;2023-04-16T17:39:19;24.00;21.20;15.00
65574;PMS5003;52216;54.942;73.394;2023-04-16T17:42:23;25.80;22.00;14.00
65574;PMS5003;52216;54.942;73.394;2023-04-16T17:45:29;24.00;22.00;13.00
65574;PMS5003;52216;54.942;73.394;2023-04-16T17:48:33;24.00;22.00;14.00
65574;PMS5003;52216;54.942;73.394;2023-04-16T17:51:35;28.67;23.67;14.67